Time;durP1;ratioP1;P1;durP2;ratioP2;P2;SDS_P1;SDS_P2;PMS_P1;PMS_P2;Temp;Humidity;BMP_temperature;BMP_pressure;BME280_temperature;BME280_humidity;BME280_pressure;Samples;Min_cycle;Max_cycle;Signal;HPM_P1;HPM_P2
2022/04/09 00:00:24;;;;;;;9.30;2.22;;;;;;;;;;4998929;28;20079;-69
2022/04/09 00:02:49;;;;;;;21.73;2.60;;;;;;;;;;5020176;28;20052;-69
2022/04/09 00:05:15;;;;;;;12.27;2.88;;;;;;;;;;5018954;28;20029;-69
2022/04/09 00:07:40;;;;;;;15.50;2.22;;;;;;;;;;5020774;28;20413;-69
2022/04/09 00:10:07;;;;;;;17.35;2.55;;;;;;;;;;5022037;28;20079;-69
2022/04/09 00:12:32;;;;;;;11.05;1.80;;;;;;;;;;5018339;28;20026;-69
2022/04/09 00:14:57;;;;;;;13.02;2.00;;;;;;;;;;5024341;28;20021;-70
2022/04/09 00:17:22;;;;;;;18.00;2.85;;;;;;;;;;5020436;28;20021;-70
2022/04/09 00:19:48;;;;;;;12.67;2.63;;;;;;;;;;5013486;28;20033;-70
2022/04/09 00:22:13;;;;;;;13.60;2.70;;;;;;;;;;5017417;28;20294;-72
2022/04/09 00:24:39;;;;;;;13.48;2.90;;;;;;;;;;5007585;28;20577;-70
2022/04/09 00:27:04;;;;;;;12.93;2.85;;;;;;;;;;5015588;28;20025;-70
2022/04/09 00:29:29;;;;;;;15.82;3.50;;;;;;;;;;5019916;28;20406;-70
2022/04/09 00:31:54;;;;;;;14.18;3.28;;;;;;;;;;5005472;28;20072;-70
2022/04/09 00:34:19;;;;;;;15.55;2.78;;;;;;;;;;5019357;28;20109;-70
2022/04/09 00:36:44;;;;;;;10.25;2.35;;;;;;;;;;5018095;28;20025;-70
2022/04/09 00:39:10;;;;;;;14.63;2.65;;;;;;;;;;5021495;28;20017;-70
2022/04/09 00:41:35;;;;;;;13.00;3.08;;;;;;;;;;5024738;28;20474;-70
2022/04/09 00:44:00;;;;;;;11.45;2.60;;;;;;;;;;5013572;28;20052;-69
2022/04/09 00:46:25;;;;;;;17.27;4.13;;;;;;;;;;5020212;28;20108;-70
2022/04/09 00:48:51;;;;;;;15.05;3.05;;;;;;;;;;5025880;28;20022;-70
2022/04/09 00:51:16;;;;;;;21.92;4.65;;;;;;;;;;5022676;28;20025;-71
2022/04/09 00:53:42;;;;;;;18.70;3.20;;;;;;;;;;5026650;28;20347;-70
2022/04/09 00:56:20;;;;;;;13.40;2.63;;;;;;;;;;5019596;28;20497;-72
2022/04/09 00:58:55;;;;;;;12.15;3.25;;;;;;;;;;5023081;28;20033;-70
2022/04/09 01:01:22;;;;;;;13.02;3.33;;;;;;;;;;5014941;28;20017;-71
2022/04/09 01:03:48;;;;;;;18.17;4.50;;;;;;;;;;5016125;28;20021;-69
2022/04/09 01:06:13;;;;;;;31.75;4.55;;;;;;;;;;5020020;28;20108;-71
2022/04/09 01:08:38;;;;;;;23.27;4.38;;;;;;;;;;5020040;28;20426;-70
2022/04/09 01:11:04;;;;;;;20.98;4.07;;;;;;;;;;5024887;28;20531;-70
2022/04/09 01:13:29;;;;;;;19.83;3.20;;;;;;;;;;5024428;28;20018;-70
2022/04/09 01:15:55;;;;;;;19.80;3.33;;;;;;;;;;5023432;28;20393;-70
2022/04/09 01:18:20;;;;;;;18.58;3.53;;;;;;;;;;5027079;28;20048;-72
2022/04/09 01:20:45;;;;;;;13.00;2.67;;;;;;;;;;5023763;28;20025;-72
2022/04/09 01:23:11;;;;;;;19.75;4.57;;;;;;;;;;5017422;28;20093;-70
2022/04/09 01:25:37;;;;;;;19.52;3.63;;;;;;;;;;4999889;28;20045;-69
2022/04/09 01:28:03;;;;;;;20.85;3.58;;;;;;;;;;5003314;28;20429;-68
2022/04/09 01:30:28;;;;;;;15.55;3.75;;;;;;;;;;5021739;28;20030;-69
2022/04/09 01:32:53;;;;;;;18.42;4.55;;;;;;;;;;5019426;28;20514;-71
2022/04/09 01:35:19;;;;;;;20.08;3.47;;;;;;;;;;5026895;28;20021;-71
2022/04/09 01:37:44;;;;;;;26.42;3.65;;;;;;;;;;5022854;28;20030;-71
2022/04/09 01:40:10;;;;;;;24.98;4.28;;;;;;;;;;5024419;28;20021;-69
2022/04/09 01:42:36;;;;;;;13.23;3.30;;;;;;;;;;5026766;28;20017;-68
2022/04/09 01:45:02;;;;;;;16.65;4.72;;;;;;;;;;5029484;28;20087;-69
2022/04/09 01:47:27;;;;;;;20.67;4.65;;;;;;;;;;5023155;28;20100;-72
2022/04/09 01:49:52;;;;;;;31.63;5.57;;;;;;;;;;5029450;28;20521;-69
2022/04/09 01:52:17;;;;;;;22.80;3.88;;;;;;;;;;4996776;28;20037;-70
2022/04/09 01:54:43;;;;;;;21.45;4.20;;;;;;;;;;5003387;28;20438;-69
2022/04/09 01:57:08;;;;;;;16.92;3.33;;;;;;;;;;5024980;28;20725;-68
2022/04/09 01:59:33;;;;;;;27.83;4.60;;;;;;;;;;5025258;28;20060;-69
2022/04/09 02:01:58;;;;;;;31.77;6.50;;;;;;;;;;5025435;28;20019;-69
2022/04/09 02:04:23;;;;;;;27.55;3.97;;;;;;;;;;5016152;28;20119;-69
2022/04/09 02:06:49;;;;;;;27.50;4.00;;;;;;;;;;5011351;28;20456;-68
2022/04/09 02:09:15;;;;;;;15.02;3.75;;;;;;;;;;5017382;28;20013;-69
2022/04/09 02:11:43;;;;;;;14.40;4.50;;;;;;;;;;5027475;28;20448;-69
2022/04/09 02:14:09;;;;;;;15.65;3.30;;;;;;;;;;5019951;28;20428;-69
2022/04/09 02:16:34;;;;;;;24.00;3.80;;;;;;;;;;5022381;28;20025;-68
2022/04/09 02:19:00;;;;;;;19.00;3.92;;;;;;;;;;5018249;28;20044;-70
2022/04/09 02:21:25;;;;;;;21.85;4.60;;;;;;;;;;5026236;28;20037;-69
2022/04/09 02:23:50;;;;;;;22.13;3.60;;;;;;;;;;5010517;28;20030;-69
2022/04/09 02:26:15;;;;;;;20.20;4.30;;;;;;;;;;5013752;28;20025;-69
2022/04/09 02:28:41;;;;;;;31.83;4.18;;;;;;;;;;5027089;28;20096;-69
2022/04/09 02:31:06;;;;;;;25.13;4.28;;;;;;;;;;5021503;28;20024;-70
2022/04/09 02:33:31;;;;;;;20.55;3.60;;;;;;;;;;5018223;28;20035;-69
2022/04/09 02:35:57;;;;;;;43.17;8.83;;;;;;;;;;5030071;28;20021;-71
2022/04/09 02:38:24;;;;;;;24.60;3.15;;;;;;;;;;5021987;28;20306;-71
2022/04/09 02:40:49;;;;;;;16.73;4.05;;;;;;;;;;5024062;28;20459;-69
2022/04/09 02:43:14;;;;;;;32.03;5.22;;;;;;;;;;5021192;28;20105;-69
2022/04/09 02:45:40;;;;;;;17.02;4.15;;;;;;;;;;5004717;28;20030;-69
2022/04/09 02:48:05;;;;;;;27.20;5.32;;;;;;;;;;5019962;28;20022;-68
2022/04/09 02:50:30;;;;;;;24.85;4.63;;;;;;;;;;5008990;28;20108;-68
2022/04/09 02:52:55;;;;;;;19.38;3.70;;;;;;;;;;5024182;28;20100;-71
2022/04/09 02:55:21;;;;;;;44.53;3.80;;;;;;;;;;5021130;28;20025;-69
2022/04/09 02:57:46;;;;;;;32.07;4.43;;;;;;;;;;5022368;28;20022;-69
2022/04/09 03:00:11;;;;;;;19.55;3.15;;;;;;;;;;5026775;28;20702;-72
2022/04/09 03:02:40;;;;;;;31.35;4.75;;;;;;;;;;5016187;28;20029;-69
2022/04/09 03:05:06;;;;;;;15.82;3.05;;;;;;;;;;5022561;28;20108;-70
2022/04/09 03:07:31;;;;;;;32.20;3.95;;;;;;;;;;5025433;28;20600;-71
2022/04/09 03:09:57;;;;;;;24.25;4.40;;;;;;;;;;5015404;28;20025;-69
2022/04/09 03:12:22;;;;;;;31.63;6.05;;;;;;;;;;5025259;28;20025;-69
2022/04/09 03:14:47;;;;;;;25.27;4.43;;;;;;;;;;5023398;28;20021;-69
2022/04/09 03:17:12;;;;;;;30.42;4.75;;;;;;;;;;5017796;28;20112;-69
2022/04/09 03:19:37;;;;;;;18.33;5.07;;;;;;;;;;5018327;28;20095;-68
2022/04/09 03:22:03;;;;;;;26.70;4.25;;;;;;;;;;5021337;28;20014;-69
2022/04/09 03:24:29;;;;;;;16.20;2.40;;;;;;;;;;5025368;28;20025;-73
2022/04/09 03:26:54;;;;;;;30.30;4.53;;;;;;;;;;5025493;28;20348;-68
2022/04/09 03:29:19;;;;;;;21.63;3.25;;;;;;;;;;5019024;28;20052;-68
2022/04/09 03:31:44;;;;;;;20.58;3.88;;;;;;;;;;5014265;28;20044;-70
2022/04/09 03:34:09;;;;;;;21.42;3.42;;;;;;;;;;5016834;28;20021;-68
2022/04/09 03:36:36;;;;;;;8.90;1.83;;;;;;;;;;5014402;28;20013;-69
2022/04/09 03:39:02;;;;;;;22.30;4.68;;;;;;;;;;5025760;28;20099;-69
2022/04/09 03:41:27;;;;;;;23.33;4.15;;;;;;;;;;5020890;28;20359;-72
2022/04/09 03:43:53;;;;;;;25.67;4.82;;;;;;;;;;5023045;28;20018;-69
2022/04/09 03:46:18;;;;;;;23.58;3.80;;;;;;;;;;5020138;28;20017;-68
2022/04/09 03:48:43;;;;;;;43.05;5.25;;;;;;;;;;5023414;28;20029;-68
2022/04/09 03:51:09;;;;;;;27.42;5.28;;;;;;;;;;5019857;28;20390;-68
2022/04/09 03:53:34;;;;;;;33.35;6.20;;;;;;;;;;5016172;28;20041;-68
2022/04/09 03:55:59;;;;;;;20.63;5.32;;;;;;;;;;5018026;28;20382;-69
2022/04/09 03:58:26;;;;;;;24.73;4.07;;;;;;;;;;5024294;28;20382;-70
2022/04/09 04:00:51;;;;;;;28.50;5.65;;;;;;;;;;5015731;28;20010;-69
2022/04/09 04:03:18;;;;;;;33.92;7.38;;;;;;;;;;5016732;28;20021;-69
2022/04/09 04:05:43;;;;;;;36.75;5.97;;;;;;;;;;5010682;28;20395;-69
2022/04/09 04:08:09;;;;;;;35.73;6.73;;;;;;;;;;5019293;28;20025;-68
2022/04/09 04:10:36;;;;;;;33.55;6.88;;;;;;;;;;5019394;28;20394;-70
2022/04/09 04:13:01;;;;;;;33.15;7.55;;;;;;;;;;5012982;28;20029;-68
2022/04/09 04:15:27;;;;;;;26.63;5.38;;;;;;;;;;5019102;28;20403;-68
2022/04/09 04:17:52;;;;;;;32.28;5.35;;;;;;;;;;5020428;28;20044;-71
2022/04/09 04:20:17;;;;;;;46.83;8.20;;;;;;;;;;5016144;28;20056;-68
2022/04/09 04:22:42;;;;;;;31.13;6.90;;;;;;;;;;5015784;28;20268;-71
2022/04/09 04:25:09;;;;;;;35.03;6.28;;;;;;;;;;5024509;28;20036;-69
2022/04/09 04:27:34;;;;;;;33.67;6.20;;;;;;;;;;5028194;28;20443;-68
2022/04/09 04:30:00;;;;;;;29.73;5.60;;;;;;;;;;5019183;28;20116;-70
2022/04/09 04:32:25;;;;;;;25.80;5.25;;;;;;;;;;5019796;28;20522;-68
2022/04/09 04:34:51;;;;;;;16.70;4.55;;;;;;;;;;5023266;28;20021;-69
2022/04/09 04:37:16;;;;;;;28.93;4.67;;;;;;;;;;5023600;28;20025;-69
2022/04/09 04:39:41;;;;;;;30.07;6.40;;;;;;;;;;5018739;28;20376;-69
2022/04/09 04:42:07;;;;;;;22.38;5.57;;;;;;;;;;5025970;28;20771;-70
2022/04/09 04:44:32;;;;;;;27.00;5.75;;;;;;;;;;5026108;28;20021;-71
2022/04/09 04:46:58;;;;;;;23.67;4.60;;;;;;;;;;5026123;28;20398;-69
2022/04/09 04:49:23;;;;;;;33.40;4.63;;;;;;;;;;5023602;28;20075;-70
2022/04/09 04:51:48;;;;;;;23.35;6.55;;;;;;;;;;5022954;28;20021;-68
2022/04/09 04:54:13;;;;;;;36.20;7.00;;;;;;;;;;5017384;28;20022;-71
2022/04/09 04:56:38;;;;;;;25.95;3.80;;;;;;;;;;5025126;28;20064;-69
2022/04/09 04:59:04;;;;;;;32.08;6.20;;;;;;;;;;5021265;28;20009;-70
2022/04/09 05:01:29;;;;;;;31.90;5.32;;;;;;;;;;5028419;28;20014;-68
2022/04/09 05:03:54;;;;;;;28.25;5.03;;;;;;;;;;5013994;28;20053;-70
2022/04/09 05:06:20;;;;;;;22.55;4.30;;;;;;;;;;5016725;28;20025;-68
2022/04/09 05:08:45;;;;;;;18.08;3.85;;;;;;;;;;5017257;28;20029;-68
2022/04/09 05:11:10;;;;;;;28.50;4.65;;;;;;;;;;5023935;28;20105;-70
2022/04/09 05:13:35;;;;;;;18.73;3.95;;;;;;;;;;5009084;28;20110;-69
2022/04/09 05:16:00;;;;;;;24.80;4.20;;;;;;;;;;5014358;28;20053;-70
2022/04/09 05:18:26;;;;;;;20.92;3.67;;;;;;;;;;5107900;22;20545;-69
2022/04/09 05:20:52;;;;;;;18.50;3.67;;;;;;;;;;4972076;28;20051;-70
2022/04/09 05:23:17;;;;;;;23.95;5.03;;;;;;;;;;4971259;28;20185;-67
2022/04/09 05:25:42;;;;;;;20.73;3.60;;;;;;;;;;4972436;28;20104;-67
2022/04/09 05:28:10;;;;;;;19.67;3.50;;;;;;;;;;4970710;28;20290;-67
2022/04/09 05:30:35;;;;;;;32.90;3.92;;;;;;;;;;4969782;28;20030;-67
2022/04/09 05:33:01;;;;;;;25.45;4.00;;;;;;;;;;4973232;28;20026;-68
2022/04/09 05:35:27;;;;;;;27.85;4.10;;;;;;;;;;4968775;28;20035;-67
2022/04/09 05:37:52;;;;;;;17.10;3.53;;;;;;;;;;4973308;28;20029;-67
2022/04/09 05:40:17;;;;;;;37.88;3.88;;;;;;;;;;4970051;28;20537;-68
2022/04/09 05:42:42;;;;;;;26.27;5.75;;;;;;;;;;4974762;28;20105;-66
2022/04/09 05:45:08;;;;;;;35.03;4.82;;;;;;;;;;4969087;28;20022;-67
2022/04/09 05:47:38;;;;;;;30.38;5.57;;;;;;;;;;4973119;28;20482;-66
2022/04/09 05:50:04;;;;;;;24.73;3.78;;;;;;;;;;4965680;28;20031;-67
2022/04/09 05:52:29;;;;;;;26.63;5.10;;;;;;;;;;4969712;28;20019;-67
2022/04/09 05:54:54;;;;;;;41.00;6.80;;;;;;;;;;4965579;28;20054;-67
2022/04/09 05:57:19;;;;;;;34.42;6.82;;;;;;;;;;4968262;28;20270;-69
2022/04/09 05:59:44;;;;;;;29.15;5.68;;;;;;;;;;4975961;28;20014;-69
2022/04/09 06:02:10;;;;;;;34.50;7.22;;;;;;;;;;4961996;28;20031;-71
2022/04/09 06:04:35;;;;;;;25.40;5.82;;;;;;;;;;4966871;28;20330;-69
2022/04/09 06:07:00;;;;;;;41.70;6.10;;;;;;;;;;4968849;28;20031;-72
2022/04/09 06:09:26;;;;;;;23.48;4.72;;;;;;;;;;4969387;28;20511;-69
2022/04/09 06:11:51;;;;;;;32.60;6.18;;;;;;;;;;4969590;28;20468;-69
2022/04/09 06:14:16;;;;;;;29.45;6.13;;;;;;;;;;4966172;28;20041;-68
2022/04/09 06:16:43;;;;;;;37.72;6.40;;;;;;;;;;4969781;28;20014;-66
2022/04/09 06:19:09;;;;;;;28.05;5.65;;;;;;;;;;4974410;28;20112;-67
2022/04/09 06:21:35;;;;;;;30.58;6.75;;;;;;;;;;4971521;28;20046;-66
2022/04/09 06:24:00;;;;;;;34.33;6.85;;;;;;;;;;4973337;28;20030;-67
2022/04/09 06:26:25;;;;;;;38.95;6.72;;;;;;;;;;4965367;28;20023;-67
2022/04/09 06:28:51;;;;;;;31.25;5.40;;;;;;;;;;4967954;28;20037;-68
2022/04/09 06:31:16;;;;;;;30.45;5.55;;;;;;;;;;4971057;28;20026;-66
2022/04/09 06:33:41;;;;;;;26.42;5.35;;;;;;;;;;4974671;28;20027;-67
2022/04/09 06:36:06;;;;;;;33.97;7.15;;;;;;;;;;4964640;28;20027;-66
2022/04/09 06:38:34;;;;;;;35.92;6.72;;;;;;;;;;4978277;28;20023;-67
2022/04/09 06:40:59;;;;;;;24.23;4.65;;;;;;;;;;4972677;28;20058;-67
2022/04/09 06:43:26;;;;;;;24.90;4.15;;;;;;;;;;4970051;28;20102;-69
2022/04/09 06:45:51;;;;;;;26.25;5.55;;;;;;;;;;4965137;28;20476;-70
2022/04/09 06:48:16;;;;;;;25.63;4.53;;;;;;;;;;4968172;28;20081;-69
2022/04/09 06:50:42;;;;;;;30.80;6.43;;;;;;;;;;4969787;28;20089;-69
2022/04/09 06:53:07;;;;;;;27.77;6.70;;;;;;;;;;4964700;28;20785;-68
2022/04/09 06:55:32;;;;;;;19.88;3.75;;;;;;;;;;4965103;28;20290;-69
2022/04/09 06:58:03;;;;;;;31.42;5.10;;;;;;;;;;4975600;28;20015;-70
2022/04/09 07:00:29;;;;;;;22.30;4.10;;;;;;;;;;4967909;28;20483;-69
2022/04/09 07:02:54;;;;;;;29.40;5.50;;;;;;;;;;4981857;28;20030;-69
2022/04/09 07:05:19;;;;;;;30.88;4.03;;;;;;;;;;4965717;28;20034;-70
2022/04/09 07:07:48;;;;;;;23.55;4.30;;;;;;;;;;4966550;28;20042;-69
2022/04/09 07:10:14;;;;;;;20.33;4.70;;;;;;;;;;4974291;28;20026;-69
2022/04/09 07:12:39;;;;;;;38.22;5.45;;;;;;;;;;4974986;28;20491;-71
2022/04/09 07:15:05;;;;;;;27.85;4.53;;;;;;;;;;4964701;28;20027;-72
2022/04/09 07:17:31;;;;;;;20.05;4.45;;;;;;;;;;4966558;28;20839;-69
2022/04/09 07:19:57;;;;;;;23.83;3.95;;;;;;;;;;4962224;28;20040;-69
2022/04/09 07:22:22;;;;;;;22.77;5.68;;;;;;;;;;4964368;28;20585;-69
2022/04/09 07:24:47;;;;;;;19.67;4.32;;;;;;;;;;4967313;28;20034;-68
2022/04/09 07:27:12;;;;;;;21.02;4.68;;;;;;;;;;4965155;28;20042;-69
2022/04/09 07:29:38;;;;;;;30.50;5.67;;;;;;;;;;4968610;28;20022;-69
2022/04/09 07:32:03;;;;;;;16.73;5.20;;;;;;;;;;4969801;28;20432;-69
2022/04/09 07:34:28;;;;;;;20.65;4.20;;;;;;;;;;4964711;28;20027;-68
2022/04/09 07:36:53;;;;;;;20.97;3.90;;;;;;;;;;4964698;28;20026;-70
2022/04/09 07:39:19;;;;;;;24.92;3.78;;;;;;;;;;4962974;28;20759;-69
2022/04/09 07:41:44;;;;;;;23.52;5.05;;;;;;;;;;4964737;28;20038;-69
2022/04/09 07:44:09;;;;;;;26.55;5.30;;;;;;;;;;4967816;28;20026;-69
2022/04/09 07:46:34;;;;;;;24.60;5.80;;;;;;;;;;4966501;28;20027;-70
2022/04/09 07:49:00;;;;;;;32.50;6.18;;;;;;;;;;4964797;28;20030;-69
2022/04/09 07:51:25;;;;;;;22.60;4.20;;;;;;;;;;4963185;28;20106;-68
2022/04/09 07:53:50;;;;;;;24.98;4.07;;;;;;;;;;4956013;28;20054;-69
2022/04/09 07:56:16;;;;;;;23.17;3.83;;;;;;;;;;4971903;28;20037;-69
2022/04/09 07:58:42;;;;;;;23.40;3.72;;;;;;;;;;4968409;28;20423;-72
2022/04/09 08:01:07;;;;;;;18.42;4.13;;;;;;;;;;4967390;28;20503;-69
2022/04/09 08:03:32;;;;;;;16.33;3.95;;;;;;;;;;4965338;28;20035;-70
2022/04/09 08:05:57;;;;;;;28.13;3.93;;;;;;;;;;4960959;28;20035;-68
2022/04/09 08:08:22;;;;;;;19.80;3.67;;;;;;;;;;4968252;28;20376;-71
2022/04/09 08:10:48;;;;;;;21.40;3.90;;;;;;;;;;4969050;28;20284;-70
2022/04/09 08:13:13;;;;;;;23.40;3.08;;;;;;;;;;4963559;28;20696;-69
2022/04/09 08:15:39;;;;;;;18.02;3.63;;;;;;;;;;4966981;28;20150;-69
2022/04/09 08:18:05;;;;;;;16.92;3.20;;;;;;;;;;4935165;28;1050431;-68
2022/04/09 08:20:30;;;;;;;29.05;3.53;;;;;;;;;;4970332;28;20078;-68
2022/04/09 08:22:55;;;;;;;24.35;4.80;;;;;;;;;;4974568;28;20022;-69
2022/04/09 08:25:20;;;;;;;19.40;4.50;;;;;;;;;;4968306;28;20042;-72
2022/04/09 08:27:49;;;;;;;26.15;6.63;;;;;;;;;;4970183;28;20381;-69
2022/04/09 08:30:15;;;;;;;23.00;2.97;;;;;;;;;;4972387;28;20431;-69
2022/04/09 08:32:40;;;;;;;24.20;4.25;;;;;;;;;;4978671;28;20023;-70
2022/04/09 08:35:06;;;;;;;19.08;3.72;;;;;;;;;;4968511;28;20037;-70
2022/04/09 08:37:31;;;;;;;19.17;3.97;;;;;;;;;;4968981;28;20408;-69
2022/04/09 08:39:56;;;;;;;19.90;3.47;;;;;;;;;;4990564;28;20097;-70
2022/04/09 08:42:22;;;;;;;19.43;4.40;;;;;;;;;;4973724;28;20044;-69
2022/04/09 08:44:47;;;;;;;29.23;3.78;;;;;;;;;;4975758;28;20788;-70
2022/04/09 08:47:13;;;;;;;15.32;3.17;;;;;;;;;;4983196;28;20128;-69
2022/04/09 08:49:40;;;;;;;17.42;2.53;;;;;;;;;;4964126;28;20023;-70
2022/04/09 08:52:07;;;;;;;19.10;3.35;;;;;;;;;;4977059;28;20030;-70
2022/04/09 08:54:34;;;;;;;12.13;2.03;;;;;;;;;;4979259;28;20622;-70
2022/04/09 08:56:59;;;;;;;11.32;3.08;;;;;;;;;;4972562;28;20126;-69
2022/04/09 08:59:25;;;;;;;19.92;2.40;;;;;;;;;;4962062;28;20114;-68
2022/04/09 09:01:50;;;;;;;15.23;2.72;;;;;;;;;;4976784;28;20422;-68
2022/04/09 09:04:16;;;;;;;13.82;2.65;;;;;;;;;;4965641;28;20287;-69
2022/04/09 09:06:45;;;;;;;6.82;2.03;;;;;;;;;;4974252;28;20051;-69
2022/04/09 09:09:23;;;;;;;11.13;2.40;;;;;;;;;;4969892;28;20034;-69
2022/04/09 09:11:49;;;;;;;10.18;2.15;;;;;;;;;;4972060;28;20387;-70
2022/04/09 09:14:24;;;;;;;12.20;2.55;;;;;;;;;;4971491;28;20019;-68
2022/04/09 09:16:49;;;;;;;7.90;2.17;;;;;;;;;;4974627;28;20029;-70
2022/04/09 09:19:14;;;;;;;9.55;2.35;;;;;;;;;;4966726;28;20030;-68
2022/04/09 09:21:50;;;;;;;11.20;2.57;;;;;;;;;;4972890;28;20022;-70
2022/04/09 09:24:18;;;;;;;15.77;2.53;;;;;;;;;;4973398;28;20318;-71
2022/04/09 09:26:46;;;;;;;16.70;3.47;;;;;;;;;;4967828;28;20031;-70
2022/04/09 09:29:22;;;;;;;11.25;3.15;;;;;;;;;;4977137;28;20030;-71
2022/04/09 09:31:50;;;;;;;15.85;3.40;;;;;;;;;;4988038;28;20033;-69
2022/04/09 09:34:17;;;;;;;7.50;2.85;;;;;;;;;;4968809;28;20022;-68
2022/04/09 09:36:43;;;;;;;25.98;3.80;;;;;;;;;;4987417;28;20118;-68
2022/04/09 09:39:09;;;;;;;12.38;3.47;;;;;;;;;;4971038;28;20070;-69
2022/04/09 09:41:35;;;;;;;14.95;3.45;;;;;;;;;;4969948;28;20018;-69
2022/04/09 09:44:09;;;;;;;20.35;4.30;;;;;;;;;;4970322;28;20015;-71
2022/04/09 09:46:35;;;;;;;19.55;3.28;;;;;;;;;;4973096;28;20102;-71
2022/04/09 09:49:00;;;;;;;11.98;4.25;;;;;;;;;;4965792;28;20026;-71
2022/04/09 09:51:25;;;;;;;18.35;3.67;;;;;;;;;;4975614;28;20053;-69
2022/04/09 09:54:02;;;;;;;14.32;3.72;;;;;;;;;;4980489;28;20027;-69
2022/04/09 09:56:35;;;;;;;10.65;2.22;;;;;;;;;;4968806;28;20023;-72
2022/04/09 09:59:01;;;;;;;10.02;2.15;;;;;;;;;;4975184;28;20019;-69
2022/04/09 10:01:27;;;;;;;8.25;1.38;;;;;;;;;;4986486;28;20026;-69
2022/04/09 10:03:53;;;;;;;11.65;1.63;;;;;;;;;;4968005;28;20146;-69
2022/04/09 10:06:18;;;;;;;6.95;1.80;;;;;;;;;;4992750;28;20054;-69
2022/04/09 10:08:43;;;;;;;10.98;2.13;;;;;;;;;;4970314;28;20039;-70
2022/04/09 10:11:09;;;;;;;9.17;2.27;;;;;;;;;;4966331;28;20110;-70
2022/04/09 10:13:35;;;;;;;16.45;2.05;;;;;;;;;;4962013;28;20301;-71
2022/04/09 10:16:01;;;;;;;12.27;2.33;;;;;;;;;;4968157;28;20041;-69
2022/04/09 10:18:26;;;;;;;12.05;2.15;;;;;;;;;;4967270;28;20022;-69
2022/04/09 10:20:53;;;;;;;10.00;2.83;;;;;;;;;;4967707;28;20026;-70
2022/04/09 10:23:19;;;;;;;15.50;3.63;;;;;;;;;;4969021;28;20278;-69
2022/04/09 10:25:46;;;;;;;16.45;3.50;;;;;;;;;;4978906;28;20655;-69
2022/04/09 10:28:12;;;;;;;24.50;4.97;;;;;;;;;;4966847;28;20125;-69
2022/04/09 10:30:39;;;;;;;14.85;3.70;;;;;;;;;;4964269;28;20436;-69
2022/04/09 10:33:19;;;;;;;15.65;3.63;;;;;;;;;;4964530;28;20507;-69
2022/04/09 10:35:45;;;;;;;14.07;4.07;;;;;;;;;;4970233;28;20062;-69
2022/04/09 10:38:10;;;;;;;15.90;3.03;;;;;;;;;;4966616;28;20538;-71
2022/04/09 10:40:37;;;;;;;14.90;3.23;;;;;;;;;;4970333;28;20102;-69
2022/04/09 10:43:03;;;;;;;16.35;3.35;;;;;;;;;;4974188;28;20278;-69
2022/04/09 10:45:28;;;;;;;11.73;2.75;;;;;;;;;;4978633;28;20026;-71
2022/04/09 10:48:03;;;;;;;10.63;2.75;;;;;;;;;;4966848;28;20031;-69
2022/04/09 10:50:49;;;;;;;8.95;2.08;;;;;;;;;;4970798;28;20015;-69
2022/04/09 10:53:16;;;;;;;11.57;2.33;;;;;;;;;;4969427;28;20126;-69
2022/04/09 10:55:41;;;;;;;15.68;2.58;;;;;;;;;;4965936;28;20035;-71
2022/04/09 10:58:10;;;;;;;15.03;3.00;;;;;;;;;;4964447;28;20314;-69
2022/04/09 11:00:37;;;;;;;9.65;2.22;;;;;;;;;;4967859;28;20258;-70
2022/04/09 11:03:12;;;;;;;11.35;2.35;;;;;;;;;;4963328;28;20102;-69
2022/04/09 11:05:40;;;;;;;12.00;2.53;;;;;;;;;;4969590;28;20566;-70
2022/04/09 11:08:08;;;;;;;8.10;1.60;;;;;;;;;;4967896;28;20031;-69
2022/04/09 11:10:34;;;;;;;6.30;1.52;;;;;;;;;;4968271;28;20034;-70
2022/04/09 11:12:59;;;;;;;2.80;0.88;;;;;;;;;;4966610;28;20026;-71
2022/04/09 11:15:26;;;;;;;2.45;0.73;;;;;;;;;;4968284;28;20014;-69
2022/04/09 11:17:51;;;;;;;5.35;1.30;;;;;;;;;;4990388;23;20063;-69
2022/04/09 11:20:17;;;;;;;8.05;1.40;;;;;;;;;;5017269;28;20460;-68
2022/04/09 11:22:42;;;;;;;3.83;0.77;;;;;;;;;;5008529;28;20021;-69
2022/04/09 11:25:28;;;;;;;5.20;1.02;;;;;;;;;;5008525;28;20033;-68
2022/04/09 11:28:04;;;;;;;14.43;1.27;;;;;;;;;;5003976;28;20104;-70
2022/04/09 11:30:29;;;;;;;5.97;1.55;;;;;;;;;;5008524;28;20433;-68
2022/04/09 11:32:54;;;;;;;10.73;1.88;;;;;;;;;;5004854;28;20021;-69
2022/04/09 11:35:24;;;;;;;6.40;1.35;;;;;;;;;;5008464;28;20030;-69
2022/04/09 11:37:49;;;;;;;3.70;1.60;;;;;;;;;;5006922;28;20021;-69
2022/04/09 11:40:15;;;;;;;5.72;1.45;;;;;;;;;;5007361;28;20030;-69
2022/04/09 11:42:48;;;;;;;3.33;1.27;;;;;;;;;;5008176;28;20060;-70
2022/04/09 11:45:29;;;;;;;5.10;1.42;;;;;;;;;;5007366;28;20028;-69
2022/04/09 11:47:57;;;;;;;7.00;1.30;;;;;;;;;;5004301;28;20018;-69
2022/04/09 11:50:25;;;;;;;4.35;1.05;;;;;;;;;;5008550;28;20021;-69
2022/04/09 11:52:50;;;;;;;6.35;1.58;;;;;;;;;;5007890;28;20375;-69
2022/04/09 11:55:15;;;;;;;6.70;1.37;;;;;;;;;;5008810;28;20029;-69
2022/04/09 11:57:49;;;;;;;5.32;1.85;;;;;;;;;;5005485;28;20297;-70
2022/04/09 12:00:14;;;;;;;5.38;1.92;;;;;;;;;;5008608;28;20025;-70
2022/04/09 12:02:40;;;;;;;7.88;1.50;;;;;;;;;;4989621;28;20026;-69
2022/04/09 12:05:08;;;;;;;7.85;1.60;;;;;;;;;;5005184;28;20035;-70
2022/04/09 12:07:39;;;;;;;7.18;1.75;;;;;;;;;;5006340;28;20030;-70
2022/04/09 12:10:04;;;;;;;11.82;2.67;;;;;;;;;;5007957;28;20076;-70
2022/04/09 12:12:29;;;;;;;13.55;2.97;;;;;;;;;;5004421;28;20030;-70
2022/04/09 12:14:58;;;;;;;13.85;2.42;;;;;;;;;;5003758;28;20022;-70
2022/04/09 12:17:32;;;;;;;10.10;3.00;;;;;;;;;;5006338;28;20492;-70
2022/04/09 12:19:58;;;;;;;7.40;2.20;;;;;;;;;;5004413;28;20026;-70
2022/04/09 12:22:24;;;;;;;9.82;3.08;;;;;;;;;;5007894;28;20024;-70
2022/04/09 12:24:56;;;;;;;9.88;3.25;;;;;;;;;;4998132;28;20022;-71
2022/04/09 12:27:45;;;;;;;7.57;2.58;;;;;;;;;;5002334;28;20044;-70
2022/04/09 12:30:11;;;;;;;3.85;1.33;;;;;;;;;;5005250;28;20503;-71
2022/04/09 12:32:36;;;;;;;13.70;2.58;;;;;;;;;;5002717;28;20203;-69
2022/04/09 12:35:06;;;;;;;7.55;2.70;;;;;;;;;;5007942;28;20640;-70
2022/04/09 12:37:41;;;;;;;12.65;2.72;;;;;;;;;;5006243;28;20493;-71
2022/04/09 12:40:17;;;;;;;12.05;2.80;;;;;;;;;;5007931;28;20057;-70
2022/04/09 12:42:42;;;;;;;7.18;2.20;;;;;;;;;;4994119;28;20018;-71
2022/04/09 12:45:17;;;;;;;7.35;3.50;;;;;;;;;;5007511;28;20018;-70
2022/04/09 12:47:51;;;;;;;9.20;4.32;;;;;;;;;;5001328;28;20022;-70
2022/04/09 12:50:21;;;;;;;12.75;3.60;;;;;;;;;;5002027;28;20541;-70
2022/04/09 12:52:46;;;;;;;12.07;3.05;;;;;;;;;;5004206;28;20033;-71
2022/04/09 12:55:14;;;;;;;19.10;3.00;;;;;;;;;;5010579;28;20938;-70
2022/04/09 12:57:39;;;;;;;10.02;3.60;;;;;;;;;;5017765;28;20025;-70
2022/04/09 13:00:05;;;;;;;2.97;1.50;;;;;;;;;;5005290;28;20026;-69
2022/04/09 13:02:32;;;;;;;6.13;2.47;;;;;;;;;;5002590;28;20644;-71
2022/04/09 13:04:58;;;;;;;11.35;3.88;;;;;;;;;;5007235;28;20413;-71
2022/04/09 13:07:23;;;;;;;7.88;2.28;;;;;;;;;;5003910;28;20028;-72
2022/04/09 13:09:48;;;;;;;7.27;1.77;;;;;;;;;;5019732;28;20025;-72
2022/04/09 13:12:13;;;;;;;5.53;2.10;;;;;;;;;;5023423;28;20843;-70
2022/04/09 13:14:38;;;;;;;8.52;2.33;;;;;;;;;;5016821;28;20292;-71
2022/04/09 13:17:04;;;;;;;9.80;2.60;;;;;;;;;;5022186;28;20014;-71
2022/04/09 13:19:30;;;;;;;11.02;2.78;;;;;;;;;;5018612;28;20474;-71
2022/04/09 13:21:55;;;;;;;9.52;3.67;;;;;;;;;;5021184;28;20374;-71
2022/04/09 13:24:20;;;;;;;15.43;3.10;;;;;;;;;;5013734;28;20022;-70
2022/04/09 13:26:45;;;;;;;4.25;1.40;;;;;;;;;;5021010;28;20026;-71
2022/04/09 13:29:11;;;;;;;2.97;1.00;;;;;;;;;;5014195;28;20021;-71
2022/04/09 13:31:36;;;;;;;4.60;0.80;;;;;;;;;;5019252;28;20269;-71
2022/04/09 13:34:01;;;;;;;9.93;1.40;;;;;;;;;;5011883;28;20545;-70
2022/04/09 13:36:27;;;;;;;2.78;0.75;;;;;;;;;;5016672;28;20025;-71
2022/04/09 13:38:52;;;;;;;8.27;0.85;;;;;;;;;;5011434;28;20017;-70
2022/04/09 13:41:18;;;;;;;8.20;1.35;;;;;;;;;;5017770;28;20073;-71
2022/04/09 13:43:43;;;;;;;9.48;1.00;;;;;;;;;;5018824;28;20021;-70
2022/04/09 13:46:09;;;;;;;7.30;1.63;;;;;;;;;;5011426;28;20034;-71
2022/04/09 13:48:34;;;;;;;5.35;1.13;;;;;;;;;;5006604;28;20478;-71
2022/04/09 13:50:59;;;;;;;6.83;1.77;;;;;;;;;;5009201;28;20050;-72
2022/04/09 13:53:25;;;;;;;5.30;0.95;;;;;;;;;;5008926;28;20379;-72
2022/04/09 13:55:50;;;;;;;2.80;0.87;;;;;;;;;;5007404;28;20017;-72
2022/04/09 13:58:15;;;;;;;2.47;1.00;;;;;;;;;;5009599;28;20761;-70
2022/04/09 14:00:40;;;;;;;3.53;0.97;;;;;;;;;;5008396;28;20269;-72
2022/04/09 14:03:06;;;;;;;3.67;0.83;;;;;;;;;;5010598;28;20278;-71
2022/04/09 14:05:31;;;;;;;2.55;0.60;;;;;;;;;;5013429;28;20322;-72
2022/04/09 14:07:56;;;;;;;8.30;1.65;;;;;;;;;;5005698;28;20090;-72
2022/04/09 14:10:21;;;;;;;4.75;0.82;;;;;;;;;;5010946;28;20445;-71
2022/04/09 14:12:47;;;;;;;4.57;0.65;;;;;;;;;;5004860;28;20497;-71
2022/04/09 14:15:12;;;;;;;5.72;0.98;;;;;;;;;;5006991;28;20390;-71
2022/04/09 14:17:37;;;;;;;9.15;1.63;;;;;;;;;;5005778;28;20445;-72
2022/04/09 14:20:03;;;;;;;4.55;0.93;;;;;;;;;;5004374;28;20488;-72
2022/04/09 14:22:28;;;;;;;3.60;0.80;;;;;;;;;;5010718;28;20029;-72
2022/04/09 14:24:54;;;;;;;4.97;0.90;;;;;;;;;;5013102;28;20490;-72
2022/04/09 14:27:19;;;;;;;4.63;0.90;;;;;;;;;;5006599;28;20048;-72